createdAt,value
2022-10-12T00:01:07.554Z,20.88
2022-10-12T00:03:36.405Z,20.87
2022-10-12T00:06:07.683Z,20.88
2022-10-12T00:08:39.029Z,20.88
2022-10-12T00:11:09.300Z,20.88
2022-10-12T00:13:37.640Z,20.88
2022-10-12T00:16:07.628Z,20.88
2022-10-12T00:18:36.949Z,20.87
2022-10-12T00:21:07.786Z,20.85
2022-10-12T00:23:38.587Z,20.87
2022-10-12T00:26:08.951Z,20.87
2022-10-12T00:28:37.977Z,20.78
2022-10-12T00:31:09.750Z,20.87
2022-10-12T00:33:39.390Z,20.74
2022-10-12T00:36:16.380Z,20.86
2022-10-12T00:38:46.596Z,20.85
2022-10-12T00:41:16.054Z,20.84
2022-10-12T00:43:45.725Z,20.84
2022-10-12T00:46:18.052Z,20.83
2022-10-12T00:48:47.793Z,20.71
2022-10-12T00:51:18.157Z,20.84
2022-10-12T00:53:55.016Z,20.85
2022-10-12T00:56:27.390Z,20.85
2022-10-12T00:58:56.437Z,20.87
2022-10-12T01:01:25.024Z,20.85
2022-10-12T01:03:53.705Z,20.83
2022-10-12T01:06:23.122Z,20.84
2022-10-12T01:08:55.393Z,20.85
2022-10-12T01:11:25.003Z,20.85
2022-10-12T01:13:53.484Z,20.85
2022-10-12T01:16:28.851Z,20.85
2022-10-12T01:19:04.315Z,20.85
2022-10-12T01:21:36.489Z,20.85
2022-10-12T01:24:36.398Z,20.83
2022-10-12T01:27:35.378Z,20.84
2022-10-12T01:30:16.162Z,20.83
2022-10-12T01:32:54.962Z,20.83
2022-10-12T01:35:29.481Z,20.82
2022-10-12T01:38:08.594Z,20.83
2022-10-12T01:40:41.093Z,20.83
2022-10-12T01:43:10.118Z,20.82
2022-10-12T01:45:40.110Z,20.82
2022-10-12T01:48:08.623Z,20.83
2022-10-12T01:50:49.169Z,20.85
2022-10-12T01:53:26.783Z,20.84
2022-10-12T01:56:00.623Z,20.80
2022-10-12T01:58:43.789Z,20.84
2022-10-12T02:01:22.816Z,20.81
2022-10-12T02:04:00.059Z,20.83
2022-10-12T02:06:36.195Z,20.84
2022-10-12T02:09:11.212Z,20.84
2022-10-12T02:11:43.922Z,20.84
2022-10-12T02:14:17.728Z,20.83
2022-10-12T02:16:51.384Z,20.84
2022-10-12T02:19:23.230Z,20.84
2022-10-12T02:21:54.350Z,20.84
2022-10-12T02:24:24.112Z,20.81
2022-10-12T02:26:55.031Z,20.86
2022-10-12T02:29:27.432Z,20.87
2022-10-12T02:32:04.304Z,20.86
2022-10-12T02:34:37.610Z,20.87
2022-10-12T02:37:10.997Z,20.87
2022-10-12T02:39:47.310Z,20.88
2022-10-12T02:42:21.631Z,20.88
2022-10-12T02:44:50.721Z,20.88
2022-10-12T02:47:24.101Z,20.88
2022-10-12T02:49:53.681Z,20.88
2022-10-12T02:52:22.148Z,20.81
2022-10-12T02:54:50.856Z,20.85
2022-10-12T02:57:19.897Z,20.85
2022-10-12T02:59:48.545Z,20.83
2022-10-12T03:02:16.918Z,20.85
2022-10-12T03:04:49.162Z,20.85
2022-10-12T03:07:17.583Z,20.87
2022-10-12T03:09:45.648Z,20.86
2022-10-12T03:12:13.813Z,20.87
2022-10-12T03:14:42.677Z,20.87
2022-10-12T03:17:10.947Z,20.86
2022-10-12T03:19:39.978Z,20.87
2022-10-12T03:22:09.972Z,20.86
2022-10-12T03:24:38.244Z,20.87
2022-10-12T03:27:06.585Z,20.85
2022-10-12T03:29:35.124Z,20.85
2022-10-12T03:32:03.370Z,20.86
2022-10-12T03:34:31.826Z,20.86
2022-10-12T03:37:00.000Z,20.85
2022-10-12T03:39:29.705Z,20.86
2022-10-12T03:41:58.185Z,20.86
2022-10-12T03:44:26.593Z,20.87
2022-10-12T03:46:54.814Z,20.88
2022-10-12T03:49:23.259Z,20.87
2022-10-12T03:51:51.385Z,20.87
2022-10-12T03:54:20.017Z,20.86
2022-10-12T03:56:49.858Z,20.85
2022-10-12T03:59:18.072Z,20.86
2022-10-12T04:01:46.626Z,20.85
2022-10-12T04:04:15.312Z,20.85
2022-10-12T04:06:43.769Z,20.86
2022-10-12T04:09:12.361Z,20.86
2022-10-12T04:11:40.642Z,20.87
2022-10-12T04:14:10.408Z,20.88
2022-10-12T04:16:39.007Z,20.87
2022-10-12T04:19:07.697Z,20.87
2022-10-12T04:21:35.889Z,20.86
2022-10-12T04:24:04.122Z,20.86
2022-10-12T04:26:32.467Z,20.86
2022-10-12T04:29:00.663Z,20.87
2022-10-12T04:31:30.799Z,20.87
2022-10-12T04:33:59.493Z,20.81
2022-10-12T04:36:28.756Z,20.88
2022-10-12T04:39:00.804Z,20.86
2022-10-12T04:41:30.039Z,20.85
2022-10-12T04:43:58.770Z,20.88
2022-10-12T04:46:27.075Z,20.88
2022-10-12T04:48:56.714Z,20.89
2022-10-12T04:51:25.230Z,20.85
2022-10-12T04:53:53.697Z,20.87
2022-10-12T04:56:21.987Z,20.87
2022-10-12T04:58:51.138Z,20.87
2022-10-12T05:01:19.387Z,20.86
2022-10-12T05:03:47.646Z,20.87
2022-10-12T05:06:17.377Z,20.87
2022-10-12T05:08:45.602Z,20.86
2022-10-12T05:11:14.085Z,20.88
2022-10-12T05:13:42.484Z,20.88
2022-10-12T05:16:10.856Z,20.79
2022-10-12T05:18:39.109Z,20.85
2022-10-12T05:21:07.660Z,20.87
2022-10-12T05:23:37.289Z,20.86
2022-10-12T05:26:05.527Z,20.82
2022-10-12T05:28:40.589Z,20.88
2022-10-12T05:31:09.882Z,20.80
2022-10-12T05:33:38.552Z,20.88
2022-10-12T05:36:07.291Z,20.86
2022-10-12T05:38:37.079Z,20.87
2022-10-12T05:41:05.584Z,20.86
2022-10-12T05:43:35.158Z,20.87
2022-10-12T05:46:04.864Z,20.86
2022-10-12T05:48:33.505Z,20.87
2022-10-12T05:51:01.883Z,20.87
2022-10-12T05:53:30.207Z,20.87
2022-10-12T05:56:01.351Z,20.87
2022-10-12T05:58:31.578Z,20.85
2022-10-12T06:01:06.574Z,20.86
2022-10-12T06:03:35.378Z,20.85
2022-10-12T06:06:04.115Z,20.85
2022-10-12T06:08:32.794Z,20.86
2022-10-12T06:11:02.744Z,20.86
2022-10-12T06:13:30.980Z,20.84
2022-10-12T06:15:59.548Z,20.85
2022-10-12T06:18:27.969Z,20.86
2022-10-12T06:21:28.285Z,20.88
2022-10-12T06:23:45.899Z,20.86
2022-10-12T06:26:16.565Z,20.85
2022-10-12T06:28:44.839Z,20.85
2022-10-12T06:31:14.286Z,20.84
2022-10-12T06:33:42.799Z,20.87
2022-10-12T06:36:11.589Z,20.87
2022-10-12T06:38:39.864Z,20.87
2022-10-12T06:41:07.993Z,20.87
2022-10-12T06:43:38.894Z,20.87
2022-10-12T06:46:07.562Z,20.87
2022-10-12T06:48:35.833Z,20.87
2022-10-12T06:51:04.509Z,20.88
2022-10-12T06:53:33.310Z,20.88
2022-10-12T06:56:03.688Z,20.87
2022-10-12T06:58:32.070Z,20.87
2022-10-12T07:01:03.665Z,20.87
2022-10-12T07:03:32.410Z,20.88
2022-10-12T07:06:08.701Z,20.88
2022-10-12T07:08:37.090Z,20.86
2022-10-12T07:11:07.078Z,20.87
2022-10-12T07:13:35.659Z,20.83
2022-10-12T07:16:05.959Z,20.87
2022-10-12T07:18:34.456Z,20.87
2022-10-12T07:21:03.098Z,20.88
2022-10-12T07:23:32.363Z,20.88
2022-10-12T07:26:01.075Z,20.88
2022-10-12T07:28:29.382Z,20.88
2022-10-12T07:31:02.707Z,20.87
2022-10-12T07:33:35.378Z,20.88
2022-10-12T07:36:21.991Z,20.88
2022-10-12T07:38:50.847Z,20.86
2022-10-12T07:41:19.509Z,20.88
2022-10-12T07:43:47.946Z,20.86
2022-10-12T07:46:16.596Z,20.87
2022-10-12T07:48:50.202Z,20.89
2022-10-12T07:51:19.119Z,20.88
2022-10-12T07:53:47.760Z,20.84
2022-10-12T07:56:16.913Z,20.77
2022-10-12T07:58:49.875Z,20.88
2022-10-12T08:01:19.330Z,20.76
2022-10-12T08:03:49.568Z,20.89
2022-10-12T08:06:20.864Z,20.87
2022-10-12T08:08:49.942Z,20.88
2022-10-12T08:11:19.728Z,20.88
2022-10-12T08:13:48.227Z,20.87
2022-10-12T08:16:18.675Z,20.88
2022-10-12T08:18:48.539Z,20.88
2022-10-12T08:21:18.049Z,20.88
2022-10-12T08:23:46.967Z,20.88
2022-10-12T08:26:17.154Z,20.88
2022-10-12T08:28:45.565Z,20.88
2022-10-12T08:31:16.492Z,20.87
2022-10-12T08:33:45.214Z,20.73
2022-10-12T08:36:14.899Z,20.88
2022-10-12T08:38:43.945Z,20.88
2022-10-12T08:41:42.311Z,20.88
2022-10-12T08:44:26.253Z,20.86
2022-10-12T08:46:58.314Z,20.87
2022-10-12T08:49:29.462Z,20.88
2022-10-12T08:52:02.279Z,20.88
2022-10-12T08:54:33.709Z,20.88
2022-10-12T08:57:01.927Z,20.88
2022-10-12T08:59:34.780Z,20.88
2022-10-12T09:02:15.989Z,20.88
2022-10-12T09:04:53.027Z,20.86
2022-10-12T09:07:28.554Z,20.88
2022-10-12T09:10:11.587Z,20.88
2022-10-12T09:12:52.009Z,20.88
2022-10-12T09:15:23.839Z,20.88
2022-10-12T09:17:54.741Z,20.88
2022-10-12T09:20:25.254Z,20.88
2022-10-12T09:22:59.967Z,20.88
2022-10-12T09:25:29.865Z,20.89
2022-10-12T09:28:07.448Z,20.89
2022-10-12T09:30:42.315Z,20.87
2022-10-12T09:33:22.839Z,20.88
2022-10-12T09:35:51.730Z,20.88
2022-10-12T09:38:21.516Z,20.89
2022-10-12T09:40:49.635Z,20.87
2022-10-12T09:43:18.447Z,20.88
2022-10-12T09:45:48.076Z,20.90
2022-10-12T09:48:19.716Z,20.90
2022-10-12T09:50:52.230Z,20.88
2022-10-12T09:53:28.841Z,20.89
2022-10-12T09:56:03.851Z,20.89
2022-10-12T09:58:35.872Z,20.87
2022-10-12T10:01:19.337Z,20.91
2022-10-12T10:03:50.064Z,20.74
2022-10-12T10:06:25.066Z,20.89
2022-10-12T10:08:56.882Z,20.89
2022-10-12T10:11:28.630Z,20.89
2022-10-12T10:13:57.072Z,20.88
2022-10-12T10:16:27.679Z,20.88
2022-10-12T10:19:01.407Z,20.89
2022-10-12T10:21:34.392Z,20.87
2022-10-12T10:24:07.141Z,20.87
2022-10-12T10:26:55.193Z,20.87
2022-10-12T10:29:34.610Z,20.88
2022-10-12T10:32:24.476Z,20.86
2022-10-12T10:35:04.467Z,20.86
2022-10-12T10:37:34.771Z,20.73
2022-10-12T10:40:05.700Z,20.87
2022-10-12T10:42:36.116Z,20.89
2022-10-12T10:45:09.066Z,20.89
2022-10-12T10:47:46.613Z,20.77
2022-10-12T10:50:27.287Z,20.84
2022-10-12T10:52:58.478Z,20.89
2022-10-12T10:55:42.490Z,20.89
2022-10-12T10:58:23.552Z,20.89
2022-10-12T11:00:54.496Z,20.90
2022-10-12T11:03:27.356Z,20.89
2022-10-12T11:06:00.163Z,20.88
2022-10-12T11:08:31.951Z,20.87
2022-10-12T11:11:07.457Z,20.82
2022-10-12T11:13:40.085Z,20.88
2022-10-12T11:16:27.834Z,20.89
2022-10-12T11:18:59.126Z,20.89
2022-10-12T11:21:34.228Z,20.90
2022-10-12T11:24:10.624Z,20.90
2022-10-12T11:26:46.372Z,20.85
2022-10-12T11:29:18.385Z,20.90
2022-10-12T11:31:54.761Z,20.90
2022-10-12T11:34:26.211Z,20.89
2022-10-12T11:37:18.294Z,20.84
2022-10-12T11:39:48.437Z,20.90
2022-10-12T11:42:28.846Z,20.90
2022-10-12T11:45:00.840Z,20.90
2022-10-12T11:47:36.183Z,20.87
2022-10-12T11:50:07.692Z,20.90
2022-10-12T11:52:42.238Z,20.90
2022-10-12T11:55:40.704Z,20.91
2022-10-12T11:58:17.562Z,20.89
2022-10-12T12:01:02.315Z,20.87
2022-10-12T12:03:36.034Z,20.89
2022-10-12T12:06:37.186Z,20.88
2022-10-12T12:09:21.335Z,20.88
2022-10-12T12:11:49.481Z,20.88
2022-10-12T12:14:59.726Z,20.88
2022-10-12T12:17:32.110Z,20.88
2022-10-12T12:20:01.441Z,20.89
2022-10-12T12:22:32.555Z,20.89
2022-10-12T12:25:20.328Z,20.88
2022-10-12T12:27:51.425Z,20.88
2022-10-12T12:30:30.557Z,20.89
2022-10-12T12:33:01.204Z,20.89
2022-10-12T12:35:38.161Z,20.68
2022-10-12T12:38:26.034Z,20.90
2022-10-12T12:41:12.853Z,20.89
2022-10-12T12:44:03.126Z,20.89
2022-10-12T12:47:39.846Z,20.88
2022-10-12T12:50:01.491Z,20.88
2022-10-12T12:52:33.112Z,20.87
2022-10-12T12:55:22.831Z,20.85
2022-10-12T12:58:25.173Z,20.88
2022-10-12T13:01:18.574Z,20.87
2022-10-12T13:04:24.694Z,20.87
2022-10-12T13:07:15.397Z,20.87
2022-10-12T13:10:11.633Z,20.86
2022-10-12T13:13:11.213Z,20.87
2022-10-12T13:15:51.337Z,20.76
2022-10-12T13:18:47.956Z,20.87
2022-10-12T13:21:19.787Z,20.85
2022-10-12T13:23:52.520Z,20.84
2022-10-12T13:26:25.680Z,20.86
2022-10-12T13:28:56.103Z,20.89
2022-10-12T13:31:32.010Z,20.90
2022-10-12T13:34:07.833Z,20.82
2022-10-12T13:36:48.062Z,20.90
2022-10-12T13:39:20.872Z,20.90
2022-10-12T13:41:51.792Z,20.90
2022-10-12T13:44:23.257Z,20.86
2022-10-12T13:46:56.676Z,20.93
2022-10-12T13:49:27.393Z,20.87
2022-10-12T13:51:57.989Z,20.92
2022-10-12T13:54:39.374Z,20.91
2022-10-12T13:57:18.376Z,20.91
2022-10-12T13:59:48.029Z,20.91
2022-10-12T14:02:23.488Z,20.92
2022-10-12T14:04:54.972Z,20.93
2022-10-12T14:07:26.930Z,20.93
2022-10-12T14:10:00.265Z,20.94
2022-10-12T14:12:30.523Z,20.94
2022-10-12T14:14:59.867Z,20.95
2022-10-12T14:17:28.532Z,20.95
2022-10-12T14:19:59.994Z,20.94
2022-10-12T14:22:31.576Z,20.94
2022-10-12T14:25:12.255Z,20.95
2022-10-12T14:27:41.578Z,20.92
2022-10-12T14:30:20.135Z,20.93
2022-10-12T14:32:49.433Z,20.95
2022-10-12T14:35:28.146Z,20.95
2022-10-12T14:38:00.054Z,20.89
2022-10-12T14:40:38.612Z,20.93
2022-10-12T14:43:20.787Z,20.93
2022-10-12T14:45:49.462Z,20.93
2022-10-12T14:48:22.914Z,20.92
2022-10-12T14:50:51.662Z,20.92
2022-10-12T14:53:19.942Z,20.93
2022-10-12T14:55:52.264Z,20.95
2022-10-12T14:58:25.875Z,20.95
2022-10-12T15:00:54.125Z,20.96
2022-10-12T15:03:22.304Z,20.95
2022-10-12T15:05:50.506Z,20.95
2022-10-12T15:08:18.642Z,20.96
2022-10-12T15:10:47.245Z,20.93
2022-10-12T15:13:16.785Z,20.97
2022-10-12T15:15:48.390Z,20.97
2022-10-12T15:18:16.565Z,20.96
2022-10-12T15:20:49.158Z,20.97
2022-10-12T15:23:18.071Z,20.95
2022-10-12T15:25:50.837Z,20.96
2022-10-12T15:28:20.809Z,20.96
2022-10-12T15:31:15.364Z,20.96
2022-10-12T15:33:39.527Z,20.97
2022-10-12T15:36:08.238Z,20.94
2022-10-12T15:38:37.007Z,20.97
2022-10-12T15:41:05.497Z,20.97
2022-10-12T15:43:38.084Z,20.97
2022-10-12T15:46:12.172Z,20.91
2022-10-12T15:48:40.702Z,20.98
2022-10-12T15:51:17.709Z,20.99
2022-10-12T15:53:46.039Z,20.98
2022-10-12T15:56:16.013Z,20.98
2022-10-12T15:58:46.190Z,20.99
2022-10-12T16:01:14.816Z,20.97
2022-10-12T16:03:43.492Z,20.99
2022-10-12T16:06:12.134Z,20.99
2022-10-12T16:08:40.669Z,20.97
2022-10-12T16:11:13.248Z,21.00
2022-10-12T16:13:47.376Z,21.00
2022-10-12T16:16:20.060Z,20.99
2022-10-12T16:18:48.574Z,21.00
2022-10-12T16:21:16.773Z,20.99
2022-10-12T16:23:45.125Z,20.98
2022-10-12T16:26:15.858Z,20.97
2022-10-12T16:28:44.416Z,20.99
2022-10-12T16:31:17.739Z,20.98
2022-10-12T16:33:47.403Z,20.99
2022-10-12T16:36:17.899Z,20.99
2022-10-12T16:38:46.348Z,21.00
2022-10-12T16:41:16.559Z,20.85
2022-10-12T16:43:45.290Z,21.00
2022-10-12T16:46:14.745Z,21.00
2022-10-12T16:48:44.087Z,21.00
2022-10-12T16:51:15.231Z,21.00
2022-10-12T16:53:43.984Z,20.99
2022-10-12T16:56:12.141Z,20.95
2022-10-12T16:58:40.315Z,21.00
2022-10-12T17:01:12.950Z,20.97
2022-10-12T17:03:41.818Z,21.00
2022-10-12T17:06:10.978Z,20.98
2022-10-12T17:08:40.723Z,21.00
2022-10-12T17:11:10.903Z,21.00
2022-10-12T17:13:40.030Z,21.01
2022-10-12T17:16:35.397Z,21.00
2022-10-12T17:19:04.279Z,21.00
2022-10-12T17:21:32.531Z,20.99
2022-10-12T17:24:03.386Z,20.99
2022-10-12T17:26:31.935Z,21.00
2022-10-12T17:29:00.431Z,21.01
2022-10-12T17:31:29.259Z,21.00
2022-10-12T17:33:58.573Z,21.00
2022-10-12T17:36:28.552Z,21.00
2022-10-12T17:38:58.257Z,20.98
2022-10-12T17:41:29.648Z,21.00
2022-10-12T17:43:58.927Z,21.02
2022-10-12T17:46:28.122Z,21.00
2022-10-12T17:48:57.371Z,21.01
2022-10-12T17:51:25.574Z,21.02
2022-10-12T17:53:53.824Z,21.02
2022-10-12T17:56:22.829Z,21.01
2022-10-12T17:58:56.132Z,20.98
2022-10-12T18:01:25.090Z,21.01
2022-10-12T18:03:55.419Z,21.01
2022-10-12T18:06:27.507Z,20.99
2022-10-12T18:08:56.694Z,21.00
2022-10-12T18:11:25.517Z,21.01
2022-10-12T18:13:56.829Z,21.00
2022-10-12T18:16:27.460Z,20.97
2022-10-12T18:18:55.891Z,21.01
2022-10-12T18:21:25.823Z,21.01
2022-10-12T18:23:56.059Z,21.01
2022-10-12T18:26:25.137Z,21.01
2022-10-12T18:28:56.983Z,21.02
2022-10-12T18:31:28.182Z,21.02
2022-10-12T18:33:57.341Z,21.01
2022-10-12T18:36:26.438Z,21.01
2022-10-12T18:38:55.203Z,21.00
2022-10-12T18:41:26.061Z,21.00
2022-10-12T18:44:00.420Z,21.00
2022-10-12T18:46:31.742Z,20.98
2022-10-12T18:49:01.508Z,21.01
2022-10-12T18:51:32.618Z,21.00
2022-10-12T18:54:03.384Z,21.00
2022-10-12T18:56:32.199Z,20.99
2022-10-12T18:59:02.273Z,21.00
2022-10-12T19:01:31.935Z,21.01
2022-10-12T19:04:01.611Z,21.01
2022-10-12T19:06:31.809Z,20.93
2022-10-12T19:09:01.647Z,20.92
2022-10-12T19:11:34.642Z,20.98
2022-10-12T19:14:06.934Z,21.01
2022-10-12T19:16:36.150Z,21.01
2022-10-12T19:19:06.778Z,21.00
2022-10-12T19:21:35.738Z,21.01
2022-10-12T19:24:05.881Z,21.01
2022-10-12T19:26:36.057Z,21.02
2022-10-12T19:29:07.100Z,20.98
2022-10-12T19:31:37.779Z,20.96
2022-10-12T19:34:08.292Z,21.02
2022-10-12T19:36:37.628Z,21.02
2022-10-12T19:39:09.459Z,21.02
2022-10-12T19:41:38.549Z,21.02
2022-10-12T19:44:08.906Z,21.01
2022-10-12T19:46:37.161Z,21.02
2022-10-12T19:49:05.363Z,21.02
2022-10-12T19:51:33.779Z,21.02
2022-10-12T19:54:04.899Z,21.01
2022-10-12T19:56:34.180Z,21.00
2022-10-12T19:59:05.001Z,21.02
2022-10-12T20:01:37.577Z,21.01
2022-10-12T20:04:10.162Z,21.01
2022-10-12T20:06:39.728Z,21.01
2022-10-12T20:09:09.742Z,21.01
2022-10-12T20:11:38.521Z,21.01
2022-10-12T20:14:07.753Z,21.01
2022-10-12T20:16:38.209Z,21.01
2022-10-12T20:19:07.326Z,21.01
2022-10-12T20:21:36.840Z,21.02
2022-10-12T20:24:05.601Z,20.99
2022-10-12T20:26:34.209Z,21.01
2022-10-12T20:29:02.797Z,21.02
2022-10-12T20:31:31.035Z,21.03
2022-10-12T20:34:00.995Z,21.03
2022-10-12T20:36:31.673Z,21.03
2022-10-12T20:39:02.994Z,20.99
2022-10-12T20:41:31.220Z,21.03
2022-10-12T20:44:04.918Z,21.03
2022-10-12T20:46:33.449Z,20.97
2022-10-12T20:49:04.820Z,21.04
2022-10-12T20:51:35.896Z,21.03
2022-10-12T20:54:05.965Z,21.03
2022-10-12T20:56:35.151Z,21.05
2022-10-12T20:59:03.503Z,21.04
2022-10-12T21:01:31.962Z,21.03
2022-10-12T21:04:00.324Z,21.03
2022-10-12T21:06:30.111Z,21.03
2022-10-12T21:08:59.861Z,20.92
2022-10-12T21:11:28.149Z,21.03
2022-10-12T21:13:56.869Z,21.04
2022-10-12T21:16:27.336Z,20.74
2022-10-12T21:18:56.533Z,21.04
2022-10-12T21:21:24.734Z,21.04
2022-10-12T21:23:57.069Z,21.03
2022-10-12T21:26:27.230Z,21.03
2022-10-12T21:28:56.851Z,21.02
2022-10-12T21:31:29.479Z,21.02
2022-10-12T21:34:01.538Z,21.02
2022-10-12T21:36:31.590Z,21.01
2022-10-12T21:39:01.514Z,21.02
2022-10-12T21:41:31.250Z,21.02
2022-10-12T21:43:59.895Z,21.01
2022-10-12T21:46:30.755Z,21.02
2022-10-12T21:49:00.137Z,21.01
2022-10-12T21:51:30.764Z,21.01
2022-10-12T21:54:01.476Z,20.88
2022-10-12T21:56:31.990Z,21.02
2022-10-12T21:59:02.175Z,21.03
2022-10-12T22:01:34.629Z,21.03
2022-10-12T22:04:05.066Z,21.03
2022-10-12T22:06:34.320Z,21.03
2022-10-12T22:09:07.282Z,21.03
2022-10-12T22:11:36.728Z,21.03
2022-10-12T22:14:06.832Z,21.03
2022-10-12T22:16:36.937Z,21.03
2022-10-12T22:19:08.934Z,21.00
2022-10-12T22:21:37.533Z,21.04
2022-10-12T22:24:07.855Z,21.03
2022-10-12T22:26:36.657Z,21.03
2022-10-12T22:29:08.012Z,21.03
2022-10-12T22:31:38.434Z,21.03
2022-10-12T22:34:07.221Z,21.04
2022-10-12T22:36:35.779Z,21.03
2022-10-12T22:39:05.124Z,20.94
2022-10-12T22:41:34.914Z,21.03
2022-10-12T22:44:03.379Z,21.02
2022-10-12T22:46:32.093Z,21.02
2022-10-12T22:49:03.388Z,21.02
2022-10-12T22:51:34.073Z,21.03
2022-10-12T22:54:02.930Z,20.98
2022-10-12T22:56:32.149Z,21.02
2022-10-12T22:59:04.138Z,20.97
2022-10-12T23:01:32.544Z,21.01
2022-10-12T23:04:00.708Z,21.01
2022-10-12T23:06:29.002Z,21.02
2022-10-12T23:08:57.451Z,21.01
2022-10-12T23:11:28.274Z,21.01
2022-10-12T23:13:58.024Z,21.02
2022-10-12T23:16:29.408Z,21.02
2022-10-12T23:18:59.810Z,21.01
2022-10-12T23:21:29.138Z,21.01
2022-10-12T23:23:59.022Z,21.01
2022-10-12T23:26:29.183Z,21.02
2022-10-12T23:28:58.359Z,21.00
2022-10-12T23:31:29.892Z,21.02
2022-10-12T23:34:01.276Z,21.01
2022-10-12T23:36:30.068Z,21.01
2022-10-12T23:39:00.597Z,21.00
2022-10-12T23:41:29.155Z,20.98
2022-10-12T23:43:58.051Z,21.01
2022-10-12T23:46:29.382Z,20.96
2022-10-12T23:48:57.845Z,21.02
2022-10-12T23:51:27.481Z,21.01
2022-10-12T23:53:55.737Z,21.01
2022-10-12T23:56:24.258Z,21.00
2022-10-12T23:58:52.703Z,21.01
